createdAt,value
2023-03-02T00:01:19.916Z,36.51
2023-03-02T00:03:46.266Z,36.03
2023-03-02T00:06:12.606Z,35.49
2023-03-02T00:08:38.946Z,36.30
2023-03-02T00:11:05.289Z,35.80
2023-03-02T00:13:31.636Z,35.68
2023-03-02T00:15:58.058Z,36.70
2023-03-02T00:18:24.409Z,36.08
2023-03-02T00:20:50.731Z,36.94
2023-03-02T00:23:17.059Z,36.36
2023-03-02T00:25:43.406Z,36.49
2023-03-02T00:28:09.729Z,36.28
2023-03-02T00:30:36.038Z,36.02
2023-03-02T00:33:02.485Z,36.25
2023-03-02T00:35:28.907Z,37.33
2023-03-02T00:37:55.241Z,37.53
2023-03-02T00:40:21.583Z,36.81
2023-03-02T00:42:47.909Z,36.45
2023-03-02T00:45:14.251Z,37.47
2023-03-02T00:47:41.573Z,36.86
2023-03-02T00:50:08.490Z,38.02
2023-03-02T00:52:34.806Z,37.99
2023-03-02T00:55:01.145Z,38.45
2023-03-02T00:57:27.461Z,37.62
2023-03-02T00:59:53.790Z,37.48
2023-03-02T01:02:20.128Z,38.47
2023-03-02T01:04:46.469Z,39.03
2023-03-02T01:07:12.800Z,38.42
2023-03-02T01:09:39.123Z,37.85
2023-03-02T01:12:05.433Z,37.92
2023-03-02T01:14:31.745Z,38.11
2023-03-02T01:16:58.067Z,39.16
2023-03-02T01:19:24.378Z,38.67
2023-03-02T01:21:50.707Z,39.42
2023-03-02T01:24:17.035Z,38.68
2023-03-02T01:26:43.380Z,38.97
2023-03-02T01:29:09.713Z,38.69
2023-03-02T01:31:36.113Z,39.16
2023-03-02T01:34:02.460Z,39.08
2023-03-02T01:36:28.777Z,39.67
2023-03-02T01:38:55.154Z,38.94
2023-03-02T01:41:21.498Z,37.90
2023-03-02T01:43:47.882Z,37.58
2023-03-02T01:46:14.261Z,37.23
2023-03-02T01:48:40.670Z,37.05
2023-03-02T01:51:06.982Z,36.89
2023-03-02T01:53:33.321Z,36.80
2023-03-02T01:55:59.649Z,36.75
2023-03-02T01:58:25.959Z,36.96
2023-03-02T02:00:52.299Z,36.99
2023-03-02T02:03:18.611Z,37.14
2023-03-02T02:05:44.930Z,37.06
2023-03-02T02:08:11.272Z,38.12
2023-03-02T02:10:37.616Z,37.47
2023-03-02T02:13:03.949Z,37.32
2023-03-02T02:15:30.266Z,37.72
2023-03-02T02:17:56.607Z,36.99
2023-03-02T02:20:22.955Z,37.61
2023-03-02T02:22:49.276Z,37.92
2023-03-02T02:25:15.613Z,37.76
2023-03-02T02:27:41.934Z,38.10
2023-03-02T02:30:08.251Z,38.61
2023-03-02T02:32:34.618Z,37.94
2023-03-02T02:35:00.964Z,37.72
2023-03-02T02:37:27.307Z,37.89
2023-03-02T02:39:53.641Z,38.33
2023-03-02T02:42:19.960Z,37.85
2023-03-02T02:44:46.295Z,37.69
2023-03-02T02:47:12.635Z,38.74
2023-03-02T02:49:38.965Z,37.61
2023-03-02T02:52:05.357Z,37.97
2023-03-02T02:54:31.693Z,37.75
2023-03-02T02:56:58.002Z,38.00
2023-03-02T02:59:24.315Z,38.75
2023-03-02T03:01:50.641Z,38.87
2023-03-02T03:04:17.024Z,38.49
2023-03-02T03:06:43.376Z,38.49
2023-03-02T03:09:09.713Z,38.18
2023-03-02T03:11:36.052Z,37.56
2023-03-02T03:14:02.379Z,38.01
2023-03-02T03:16:28.759Z,38.14
2023-03-02T03:18:55.125Z,37.39
2023-03-02T03:21:21.445Z,37.64
2023-03-02T03:23:47.770Z,38.54
2023-03-02T03:26:14.113Z,38.98
2023-03-02T03:28:40.434Z,38.04
2023-03-02T03:31:06.869Z,37.87
2023-03-02T03:33:33.248Z,37.37
2023-03-02T03:35:59.618Z,37.87
2023-03-02T03:38:25.965Z,37.96
2023-03-02T03:40:52.279Z,37.61
2023-03-02T03:43:18.598Z,37.48
2023-03-02T03:45:44.963Z,37.65
2023-03-02T03:48:11.330Z,37.92
2023-03-02T03:50:37.665Z,37.55
2023-03-02T03:53:04.134Z,37.72
2023-03-02T03:55:30.501Z,37.72
2023-03-02T03:57:56.836Z,38.09
2023-03-02T04:00:23.152Z,37.62
2023-03-02T04:02:49.551Z,37.50
2023-03-02T04:05:15.870Z,38.61
2023-03-02T04:07:42.208Z,37.90
2023-03-02T04:10:08.525Z,38.00
2023-03-02T04:12:34.850Z,38.45
2023-03-02T04:15:01.202Z,38.40
2023-03-02T04:17:27.520Z,37.74
2023-03-02T04:19:53.848Z,38.09
2023-03-02T04:22:20.203Z,37.57
2023-03-02T04:24:46.526Z,38.07
2023-03-02T04:27:12.863Z,38.65
2023-03-02T04:29:39.202Z,38.15
2023-03-02T04:32:05.571Z,38.25
2023-03-02T04:34:31.912Z,38.74
2023-03-02T04:36:58.223Z,38.91
2023-03-02T04:39:24.573Z,39.35
2023-03-02T04:41:50.917Z,38.02
2023-03-02T04:44:17.269Z,38.10
2023-03-02T04:46:44.819Z,37.94
2023-03-02T04:49:11.358Z,38.57
2023-03-02T04:51:37.677Z,38.13
2023-03-02T04:54:03.988Z,37.02
2023-03-02T04:56:30.618Z,37.53
2023-03-02T04:58:57.178Z,37.57
2023-03-02T05:01:23.538Z,37.84
2023-03-02T05:03:49.872Z,37.25
2023-03-02T05:06:16.210Z,38.17
2023-03-02T05:08:42.536Z,37.58
2023-03-02T05:11:08.859Z,37.29
2023-03-02T05:13:35.165Z,37.65
2023-03-02T05:16:01.544Z,38.12
2023-03-02T05:18:27.926Z,38.64
2023-03-02T05:20:54.242Z,38.01
2023-03-02T05:23:20.588Z,37.78
2023-03-02T05:25:46.917Z,37.53
2023-03-02T05:28:13.262Z,37.74
2023-03-02T05:30:39.591Z,37.85
2023-03-02T05:33:05.913Z,38.36
2023-03-02T05:35:32.302Z,37.81
2023-03-02T05:37:58.657Z,37.81
2023-03-02T05:40:24.985Z,37.13
2023-03-02T05:42:51.310Z,37.21
2023-03-02T05:45:17.669Z,36.41
2023-03-02T05:47:43.992Z,36.54
2023-03-02T05:50:10.313Z,36.88
2023-03-02T05:52:36.658Z,37.51
2023-03-02T05:55:02.972Z,37.58
2023-03-02T05:57:29.284Z,37.48
2023-03-02T05:59:55.619Z,37.55
2023-03-02T06:02:22.019Z,38.90
2023-03-02T06:04:48.377Z,38.63
2023-03-02T06:07:14.715Z,38.29
2023-03-02T06:09:41.049Z,39.13
2023-03-02T06:12:07.386Z,40.34
2023-03-02T06:14:33.706Z,40.09
2023-03-02T06:17:00.081Z,40.20
2023-03-02T06:19:26.450Z,39.86
2023-03-02T06:21:52.795Z,39.80
2023-03-02T06:24:19.131Z,40.23
2023-03-02T06:26:45.471Z,39.77
2023-03-02T06:29:13.232Z,39.98
2023-03-02T06:31:39.824Z,40.99
2023-03-02T06:34:06.187Z,40.59
2023-03-02T06:36:32.834Z,40.67
2023-03-02T06:38:59.348Z,40.75
2023-03-02T06:41:25.702Z,40.19
2023-03-02T06:43:52.023Z,39.81
2023-03-02T06:46:18.424Z,40.16
2023-03-02T06:48:44.835Z,39.91
2023-03-02T06:51:11.172Z,36.21
2023-03-02T06:53:37.512Z,38.30
2023-03-02T06:56:03.860Z,39.66
2023-03-02T06:58:30.196Z,38.66
2023-03-02T07:00:56.547Z,38.47
2023-03-02T07:03:22.910Z,38.53
2023-03-02T07:05:49.350Z,38.96
2023-03-02T07:08:15.680Z,38.54
2023-03-02T07:10:42.029Z,38.24
2023-03-02T07:13:09.399Z,37.74
2023-03-02T07:15:35.790Z,38.61
2023-03-02T07:18:02.129Z,39.05
2023-03-02T07:20:28.452Z,40.20
2023-03-02T07:22:54.780Z,40.63
2023-03-02T07:25:21.124Z,39.33
2023-03-02T07:27:47.466Z,39.44
2023-03-02T07:30:13.806Z,40.23
2023-03-02T07:32:40.214Z,39.08
2023-03-02T07:35:06.545Z,40.25
2023-03-02T07:37:32.879Z,39.73
2023-03-02T07:40:00.689Z,39.65
2023-03-02T07:42:27.286Z,39.65
2023-03-02T07:44:53.600Z,38.88
2023-03-02T07:47:19.935Z,38.53
2023-03-02T07:49:46.247Z,39.07
2023-03-02T07:52:12.597Z,39.19
2023-03-02T07:54:38.922Z,39.55
2023-03-02T07:57:05.276Z,40.77
2023-03-02T07:59:31.623Z,40.31
2023-03-02T08:01:58.131Z,39.02
2023-03-02T08:04:24.501Z,40.31
2023-03-02T08:06:50.850Z,39.81
2023-03-02T08:09:17.178Z,39.83
2023-03-02T08:11:43.496Z,40.06
2023-03-02T08:14:09.906Z,39.64
2023-03-02T08:16:36.246Z,39.49
2023-03-02T08:19:02.617Z,39.52
2023-03-02T08:21:29.007Z,39.49
2023-03-02T08:23:55.431Z,39.84
2023-03-02T08:26:21.828Z,38.21
2023-03-02T08:28:48.295Z,38.15
2023-03-02T08:31:14.669Z,39.00
2023-03-02T08:33:41.006Z,38.22
2023-03-02T08:36:07.385Z,37.80
2023-03-02T08:38:33.771Z,38.69
2023-03-02T08:41:00.117Z,38.19
2023-03-02T08:43:26.465Z,37.99
2023-03-02T08:45:52.862Z,38.53
2023-03-02T08:48:19.234Z,38.32
2023-03-02T08:50:45.558Z,38.47
2023-03-02T08:53:11.910Z,34.92
2023-03-02T08:55:38.262Z,36.59
2023-03-02T08:58:04.610Z,38.98
2023-03-02T09:00:31.786Z,38.32
2023-03-02T09:02:58.163Z,38.07
2023-03-02T09:05:24.494Z,37.49
2023-03-02T09:07:50.818Z,37.15
2023-03-02T09:10:17.144Z,36.87
2023-03-02T09:12:43.483Z,36.02
2023-03-02T09:15:09.803Z,35.84
2023-03-02T09:17:36.140Z,36.84
2023-03-02T09:20:02.470Z,37.03
2023-03-02T09:22:28.876Z,37.20
2023-03-02T09:24:55.228Z,34.45
2023-03-02T09:27:21.571Z,33.91
2023-03-02T09:29:47.899Z,33.11
2023-03-02T09:32:14.388Z,32.85
2023-03-02T09:34:40.774Z,103.62
2023-03-02T09:37:07.144Z,247.37
2023-03-02T09:39:33.470Z,207.62
2023-03-02T09:41:59.805Z,104.99
2023-03-02T09:44:26.119Z,86.31
2023-03-02T09:46:52.494Z,67.96
2023-03-02T09:49:18.818Z,82.36
2023-03-02T09:51:45.148Z,84.40
2023-03-02T09:54:11.537Z,60.72
2023-03-02T09:56:37.877Z,49.25
2023-03-02T09:59:04.221Z,42.43
2023-03-02T10:01:30.557Z,37.48
2023-03-02T10:03:57.073Z,36.90
2023-03-02T10:06:23.475Z,37.50
2023-03-02T10:08:49.804Z,37.90
2023-03-02T10:11:16.155Z,37.16
2023-03-02T10:13:42.484Z,35.80
2023-03-02T10:16:08.844Z,34.18
2023-03-02T10:18:35.265Z,34.39
2023-03-02T10:21:01.596Z,33.98
2023-03-02T10:23:27.928Z,33.67
2023-03-02T10:25:54.287Z,34.70
2023-03-02T10:28:20.619Z,35.87
2023-03-02T10:30:46.973Z,35.07
2023-03-02T10:33:13.329Z,34.86
2023-03-02T10:35:39.713Z,35.02
2023-03-02T10:38:06.073Z,34.30
2023-03-02T10:40:32.402Z,34.39
2023-03-02T10:42:58.739Z,34.15
2023-03-02T10:45:25.059Z,33.02
2023-03-02T10:47:51.393Z,34.16
2023-03-02T10:50:17.702Z,33.96
2023-03-02T10:52:54.452Z,33.71
2023-03-02T10:55:25.525Z,34.07
2023-03-02T10:57:51.847Z,33.79
2023-03-02T11:00:18.174Z,34.53
2023-03-02T11:02:44.502Z,33.24
2023-03-02T11:05:10.848Z,32.62
2023-03-02T11:07:37.195Z,33.24
2023-03-02T11:10:03.576Z,33.47
2023-03-02T11:12:29.916Z,33.87
2023-03-02T11:14:56.231Z,33.18
2023-03-02T11:17:22.577Z,33.48
2023-03-02T11:19:48.913Z,33.30
2023-03-02T11:22:15.264Z,32.47
2023-03-02T11:24:41.576Z,33.51
2023-03-02T11:27:07.887Z,32.67
2023-03-02T11:29:34.224Z,32.76
2023-03-02T11:32:00.625Z,32.18
2023-03-02T11:34:26.983Z,32.86
2023-03-02T11:36:53.326Z,32.63
2023-03-02T11:39:19.664Z,32.58
2023-03-02T11:41:46.006Z,31.91
2023-03-02T11:44:12.335Z,32.28
2023-03-02T11:46:38.727Z,32.59
2023-03-02T11:49:05.073Z,32.28
2023-03-02T11:51:31.825Z,32.66
2023-03-02T11:53:58.327Z,32.56
2023-03-02T11:56:24.701Z,31.83
2023-03-02T11:58:51.028Z,31.59
2023-03-02T12:01:17.343Z,31.84
2023-03-02T12:03:43.674Z,32.46
2023-03-02T12:06:10.025Z,31.06
2023-03-02T12:08:36.366Z,31.81
2023-03-02T12:11:02.715Z,31.18
2023-03-02T12:13:29.057Z,30.73
2023-03-02T12:15:55.386Z,32.34
2023-03-02T12:18:21.715Z,31.75
2023-03-02T12:20:48.036Z,32.09
2023-03-02T12:23:14.393Z,31.20
2023-03-02T12:25:40.706Z,31.80
2023-03-02T12:28:07.055Z,32.06
2023-03-02T12:30:33.396Z,31.35
2023-03-02T12:32:59.728Z,32.12
2023-03-02T12:35:26.112Z,31.60
2023-03-02T12:37:52.438Z,31.75
2023-03-02T12:40:18.766Z,31.69
2023-03-02T12:42:45.121Z,31.66
2023-03-02T12:45:11.441Z,31.22
2023-03-02T12:47:38.017Z,31.74
2023-03-02T12:50:04.440Z,30.49
2023-03-02T12:52:30.822Z,31.58
2023-03-02T12:54:57.195Z,31.27
2023-03-02T12:57:23.546Z,32.03
2023-03-02T12:59:50.944Z,31.55
2023-03-02T13:02:17.353Z,32.07
2023-03-02T13:04:43.743Z,31.69
2023-03-02T13:07:10.093Z,29.88
2023-03-02T13:09:38.381Z,30.97
2023-03-02T13:12:06.390Z,31.37
2023-03-02T13:14:32.739Z,30.74
2023-03-02T13:16:59.107Z,31.70
2023-03-02T13:19:25.445Z,31.70
2023-03-02T13:21:51.759Z,31.45
2023-03-02T13:24:18.074Z,31.92
2023-03-02T13:26:44.396Z,32.00
2023-03-02T13:29:10.748Z,31.35
2023-03-02T13:31:37.100Z,31.83
2023-03-02T13:34:03.465Z,31.13
2023-03-02T13:36:29.852Z,31.00
2023-03-02T13:38:56.285Z,31.12
2023-03-02T13:41:22.626Z,30.73
2023-03-02T13:43:48.962Z,31.09
2023-03-02T13:46:15.438Z,31.78
2023-03-02T13:48:41.807Z,31.63
2023-03-02T13:51:08.136Z,31.91
2023-03-02T13:53:34.506Z,30.84
2023-03-02T13:56:00.888Z,31.04
2023-03-02T13:58:27.210Z,31.02
2023-03-02T14:00:53.654Z,30.98
2023-03-02T14:03:20.001Z,31.30
2023-03-02T14:05:46.338Z,31.69
2023-03-02T14:08:12.650Z,30.88
2023-03-02T14:10:38.972Z,31.77
2023-03-02T14:13:05.339Z,31.57
2023-03-02T14:15:31.723Z,31.52
2023-03-02T14:17:58.100Z,31.29
2023-03-02T14:20:24.449Z,30.62
2023-03-02T14:22:50.766Z,30.91
2023-03-02T14:25:17.079Z,31.08
2023-03-02T14:27:43.406Z,31.43
2023-03-02T14:30:09.784Z,31.28
2023-03-02T14:32:36.134Z,31.06
2023-03-02T14:35:02.464Z,31.42
2023-03-02T14:37:28.809Z,31.67
2023-03-02T14:39:55.625Z,31.84
2023-03-02T14:42:22.112Z,30.93
2023-03-02T14:44:48.504Z,30.64
2023-03-02T14:47:14.837Z,32.15
2023-03-02T14:49:41.203Z,30.91
2023-03-02T14:52:07.536Z,31.72
2023-03-02T14:54:33.867Z,31.19
2023-03-02T14:57:00.231Z,31.37
2023-03-02T14:59:26.545Z,31.91
2023-03-02T15:01:52.920Z,30.26
2023-03-02T15:04:19.278Z,30.38
2023-03-02T15:06:45.664Z,31.49
2023-03-02T15:09:11.988Z,31.59
2023-03-02T15:11:38.322Z,31.17
2023-03-02T15:14:04.653Z,31.71
2023-03-02T15:16:31.024Z,31.14
2023-03-02T15:18:58.925Z,31.74
2023-03-02T15:21:25.372Z,31.00
2023-03-02T15:23:51.695Z,31.15
2023-03-02T15:26:18.011Z,31.76
2023-03-02T15:28:44.330Z,30.91
2023-03-02T15:31:10.722Z,31.90
2023-03-02T15:33:37.104Z,32.30
2023-03-02T15:36:03.428Z,31.46
2023-03-02T15:38:29.909Z,31.56
2023-03-02T15:40:56.217Z,31.27
2023-03-02T15:43:22.555Z,31.71
2023-03-02T15:45:48.908Z,32.42
2023-03-02T15:48:15.287Z,32.18
2023-03-02T15:50:41.613Z,31.95
2023-03-02T15:53:07.938Z,31.47
2023-03-02T15:55:34.276Z,31.48
2023-03-02T15:58:00.620Z,31.39
2023-03-02T16:00:26.946Z,31.13
2023-03-02T16:02:53.318Z,31.19
2023-03-02T16:05:19.674Z,31.61
2023-03-02T16:07:46.017Z,31.11
2023-03-02T16:10:12.341Z,31.12
2023-03-02T16:12:38.673Z,31.56
2023-03-02T16:15:05.010Z,31.18
2023-03-02T16:17:31.362Z,31.84
2023-03-02T16:19:57.706Z,31.73
2023-03-02T16:22:24.055Z,31.61
2023-03-02T16:24:50.431Z,32.34
2023-03-02T16:27:16.780Z,31.94
2023-03-02T16:29:43.106Z,30.82
2023-03-02T16:32:09.519Z,31.81
2023-03-02T16:34:35.942Z,31.73
2023-03-02T16:37:02.281Z,31.68
2023-03-02T16:39:28.614Z,32.72
2023-03-02T16:41:54.936Z,33.05
2023-03-02T16:44:21.283Z,32.37
2023-03-02T16:46:47.628Z,32.60
2023-03-02T16:49:13.962Z,32.89
2023-03-02T16:51:40.566Z,32.88
2023-03-02T16:54:06.952Z,32.12
2023-03-02T16:56:33.277Z,32.22
2023-03-02T16:59:00.351Z,32.63
2023-03-02T17:01:26.812Z,32.79
2023-03-02T17:03:53.208Z,32.05
2023-03-02T17:06:19.553Z,32.80
2023-03-02T17:08:45.892Z,32.24
2023-03-02T17:11:12.243Z,31.97
2023-03-02T17:13:38.556Z,32.76
2023-03-02T17:16:04.931Z,32.97
2023-03-02T17:18:31.320Z,34.14
2023-03-02T17:20:57.690Z,37.60
2023-03-02T17:23:24.028Z,37.64
2023-03-02T17:25:50.465Z,34.72
2023-03-02T17:28:16.802Z,33.41
2023-03-02T17:30:43.137Z,33.50
2023-03-02T17:33:09.444Z,32.30
2023-03-02T17:35:35.785Z,32.77
2023-03-02T17:38:02.187Z,33.41
2023-03-02T17:40:28.517Z,32.75
2023-03-02T17:42:57.352Z,32.38
2023-03-02T17:45:24.048Z,32.56
2023-03-02T17:47:50.383Z,32.56
2023-03-02T17:50:16.698Z,32.44
2023-03-02T17:52:43.011Z,33.14
2023-03-02T17:55:09.341Z,33.04
2023-03-02T17:57:35.688Z,34.17
2023-03-02T18:00:02.032Z,33.58
2023-03-02T18:02:28.365Z,33.06
2023-03-02T18:04:54.697Z,33.22
2023-03-02T18:07:21.032Z,33.02
2023-03-02T18:09:47.363Z,33.25
2023-03-02T18:12:13.670Z,33.05
2023-03-02T18:14:40.000Z,33.08
2023-03-02T18:17:06.361Z,32.89
2023-03-02T18:19:32.670Z,33.83
2023-03-02T18:21:58.979Z,32.54
2023-03-02T18:24:25.319Z,32.87
2023-03-02T18:26:51.652Z,33.24
2023-03-02T18:29:17.966Z,34.42
2023-03-02T18:31:44.358Z,34.60
2023-03-02T18:34:10.946Z,34.80
2023-03-02T18:36:37.349Z,35.06
2023-03-02T18:39:03.684Z,35.62
2023-03-02T18:41:30.028Z,39.59
2023-03-02T18:43:56.341Z,41.77
2023-03-02T18:46:22.733Z,41.13
2023-03-02T18:48:49.097Z,38.80
2023-03-02T18:51:15.434Z,37.65
2023-03-02T18:53:41.746Z,36.94
2023-03-02T18:56:08.078Z,35.55
2023-03-02T18:58:34.423Z,37.08
2023-03-02T19:01:00.821Z,37.92
2023-03-02T19:03:27.196Z,38.06
2023-03-02T19:05:53.545Z,37.56
2023-03-02T19:08:19.886Z,38.72
2023-03-02T19:10:46.220Z,38.13
2023-03-02T19:13:12.570Z,37.25
2023-03-02T19:15:38.905Z,36.51
2023-03-02T19:18:05.242Z,38.26
2023-03-02T19:20:31.583Z,36.75
2023-03-02T19:22:57.931Z,37.61
2023-03-02T19:25:24.273Z,38.69
2023-03-02T19:27:50.614Z,38.41
2023-03-02T19:30:16.933Z,39.25
2023-03-02T19:32:43.292Z,42.01
2023-03-02T19:35:09.759Z,40.70
2023-03-02T19:37:36.090Z,39.02
2023-03-02T19:40:02.474Z,36.27
2023-03-02T19:42:28.791Z,34.79
2023-03-02T19:44:55.108Z,33.64
2023-03-02T19:47:21.440Z,36.22
2023-03-02T19:49:47.804Z,35.17
2023-03-02T19:52:14.136Z,35.22
2023-03-02T19:54:40.475Z,34.57
2023-03-02T19:57:06.808Z,35.94
2023-03-02T19:59:33.125Z,35.40
2023-03-02T20:01:59.546Z,36.60
2023-03-02T20:04:25.962Z,37.90
2023-03-02T20:06:52.309Z,38.25
2023-03-02T20:09:18.644Z,37.64
2023-03-02T20:11:44.965Z,37.04
2023-03-02T20:14:13.320Z,38.22
2023-03-02T20:16:43.105Z,38.99
2023-03-02T20:19:09.463Z,39.62
2023-03-02T20:21:35.919Z,39.72
2023-03-02T20:24:02.234Z,40.02
2023-03-02T20:26:28.566Z,40.58
2023-03-02T20:28:54.902Z,40.97
2023-03-02T20:31:21.284Z,41.09
2023-03-02T20:33:47.693Z,42.49
2023-03-02T20:36:14.034Z,42.49
2023-03-02T20:38:40.406Z,40.18
2023-03-02T20:41:06.733Z,38.57
2023-03-02T20:43:33.081Z,38.89
2023-03-02T20:45:59.434Z,37.82
2023-03-02T20:48:25.772Z,39.28
2023-03-02T20:50:52.109Z,38.35
2023-03-02T20:53:18.422Z,39.75
2023-03-02T20:55:44.791Z,40.29
2023-03-02T20:58:11.122Z,40.45
2023-03-02T21:00:37.460Z,40.59
2023-03-02T21:03:03.826Z,41.39
2023-03-02T21:05:30.165Z,41.82
2023-03-02T21:07:56.525Z,41.98
2023-03-02T21:10:22.861Z,42.63
2023-03-02T21:12:49.290Z,43.77
2023-03-02T21:15:15.761Z,44.73
2023-03-02T21:17:42.091Z,46.04
2023-03-02T21:20:08.437Z,46.23
2023-03-02T21:22:34.812Z,47.38
2023-03-02T21:25:01.279Z,48.27
2023-03-02T21:27:27.678Z,47.47
2023-03-02T21:29:54.017Z,47.12
2023-03-02T21:32:20.429Z,48.07
2023-03-02T21:34:46.809Z,47.66
2023-03-02T21:37:13.138Z,49.00
2023-03-02T21:39:39.474Z,49.01
2023-03-02T21:42:05.795Z,48.36
2023-03-02T21:44:32.136Z,47.77
2023-03-02T21:46:58.471Z,48.97
2023-03-02T21:49:24.777Z,48.24
2023-03-02T21:51:51.110Z,47.99
2023-03-02T21:54:17.428Z,48.37
2023-03-02T21:56:43.762Z,49.05
2023-03-02T21:59:10.103Z,48.91
2023-03-02T22:01:36.450Z,48.75
2023-03-02T22:04:02.814Z,48.53
2023-03-02T22:06:29.128Z,48.21
2023-03-02T22:08:55.444Z,49.34
2023-03-02T22:11:21.772Z,47.62
2023-03-02T22:13:48.095Z,47.92
2023-03-02T22:16:14.694Z,48.31
2023-03-02T22:18:41.047Z,48.61
2023-03-02T22:21:07.380Z,48.51
2023-03-02T22:23:33.712Z,48.99
2023-03-02T22:26:00.050Z,49.80
2023-03-02T22:28:26.382Z,49.48
2023-03-02T22:30:52.727Z,48.71
2023-03-02T22:33:19.046Z,47.95
2023-03-02T22:35:45.398Z,48.75
2023-03-02T22:38:11.750Z,47.45
2023-03-02T22:40:38.096Z,48.44
2023-03-02T22:43:04.443Z,48.95
2023-03-02T22:45:30.777Z,48.81
2023-03-02T22:47:57.093Z,49.56
2023-03-02T22:50:23.422Z,48.78
2023-03-02T22:52:49.757Z,48.69
2023-03-02T22:55:16.110Z,47.79
2023-03-02T22:57:42.493Z,48.44
2023-03-02T23:00:08.852Z,48.42
2023-03-02T23:02:35.176Z,49.41
2023-03-02T23:05:01.500Z,49.06
2023-03-02T23:07:27.812Z,48.43
2023-03-02T23:09:54.153Z,48.82
2023-03-02T23:12:20.527Z,49.51
2023-03-02T23:14:46.853Z,48.67
2023-03-02T23:17:13.185Z,49.16
2023-03-02T23:19:39.490Z,48.97
2023-03-02T23:22:05.828Z,49.42
2023-03-02T23:24:32.156Z,49.80
2023-03-02T23:26:58.501Z,48.80
2023-03-02T23:29:24.832Z,48.25
2023-03-02T23:31:51.245Z,48.76
2023-03-02T23:34:17.585Z,49.14
2023-03-02T23:36:43.894Z,48.88
2023-03-02T23:39:10.219Z,48.28
2023-03-02T23:41:36.569Z,49.07
2023-03-02T23:44:02.956Z,48.83
2023-03-02T23:46:29.273Z,49.29
2023-03-02T23:48:55.609Z,48.96
2023-03-02T23:51:21.934Z,49.28
2023-03-02T23:53:48.268Z,48.56
2023-03-02T23:56:14.589Z,48.74
2023-03-02T23:58:40.913Z,49.09
